sensor_id;sensor_type;location;lat;lon;timestamp;pressure;altitude;pressure_sealevel;temperature;humidity
24234;BME280;12365;43.554;1.388;2023-02-17T00:01:55;101409.34;;;9.08;51.54
24234;BME280;12365;43.554;1.388;2023-02-17T00:04:21;101413.50;;;9.06;51.73
24234;BME280;12365;43.554;1.388;2023-02-17T00:06:46;101414.97;;;9.02;51.75
24234;BME280;12365;43.554;1.388;2023-02-17T00:09:14;101407.69;;;8.98;51.77
24234;BME280;12365;43.554;1.388;2023-02-17T00:11:39;101412.66;;;8.95;51.80
24234;BME280;12365;43.554;1.388;2023-02-17T00:14:05;101414.13;;;8.92;51.87
24234;BME280;12365;43.554;1.388;2023-02-17T00:16:32;101424.38;;;8.90;52.03
24234;BME280;12365;43.554;1.388;2023-02-17T00:18:59;101418.13;;;8.88;51.93
24234;BME280;12365;43.554;1.388;2023-02-17T00:21:28;101422.06;;;8.83;52.10
24234;BME280;12365;43.554;1.388;2023-02-17T00:23:56;101421.81;;;8.80;52.07
24234;BME280;12365;43.554;1.388;2023-02-17T00:26:22;101434.59;;;8.77;52.09
24234;BME280;12365;43.554;1.388;2023-02-17T00:28:48;101424.69;;;8.73;52.09
24234;BME280;12365;43.554;1.388;2023-02-17T00:31:17;101417.31;;;8.67;52.00
24234;BME280;12365;43.554;1.388;2023-02-17T00:33:43;101434.63;;;8.66;52.25
24234;BME280;12365;43.554;1.388;2023-02-17T00:36:13;101423.16;;;8.64;52.32
24234;BME280;12365;43.554;1.388;2023-02-17T00:38:42;101413.28;;;8.60;52.28
24234;BME280;12365;43.554;1.388;2023-02-17T00:41:07;101423.44;;;8.57;52.09
24234;BME280;12365;43.554;1.388;2023-02-17T00:43:33;101417.34;;;8.57;52.34
24234;BME280;12365;43.554;1.388;2023-02-17T00:45:58;101425.91;;;8.56;52.26
24234;BME280;12365;43.554;1.388;2023-02-17T00:48:24;101421.13;;;8.50;52.29
24234;BME280;12365;43.554;1.388;2023-02-17T00:50:49;101417.47;;;8.48;52.35
24234;BME280;12365;43.554;1.388;2023-02-17T00:53:15;101422.44;;;8.45;52.53
24234;BME280;12365;43.554;1.388;2023-02-17T00:55:40;101421.53;;;8.44;52.41
24234;BME280;12365;43.554;1.388;2023-02-17T00:58:05;101417.22;;;8.45;52.55
24234;BME280;12365;43.554;1.388;2023-02-17T01:00:31;101414.75;;;8.46;52.51
24234;BME280;12365;43.554;1.388;2023-02-17T01:02:57;101411.13;;;8.44;52.01
24234;BME280;12365;43.554;1.388;2023-02-17T01:05:22;101419.72;;;8.43;52.29
24234;BME280;12365;43.554;1.388;2023-02-17T01:07:47;101410.22;;;8.44;52.55
24234;BME280;12365;43.554;1.388;2023-02-17T01:10:13;101420.63;;;8.44;52.42
24234;BME280;12365;43.554;1.388;2023-02-17T01:12:39;101416.06;;;8.41;52.45
24234;BME280;12365;43.554;1.388;2023-02-17T01:15:05;101413.94;;;8.37;52.62
24234;BME280;12365;43.554;1.388;2023-02-17T01:17:30;101425.25;;;8.38;52.54
24234;BME280;12365;43.554;1.388;2023-02-17T01:19:56;101423.44;;;8.37;52.52
24234;BME280;12365;43.554;1.388;2023-02-17T01:22:22;101421.66;;;8.36;52.68
24234;BME280;12365;43.554;1.388;2023-02-17T01:24:47;101418.00;;;8.34;52.56
24234;BME280;12365;43.554;1.388;2023-02-17T01:27:13;101416.44;;;8.36;52.62
24234;BME280;12365;43.554;1.388;2023-02-17T01:29:38;101409.41;;;8.35;52.40
24234;BME280;12365;43.554;1.388;2023-02-17T01:32:04;101412.00;;;8.35;52.42
24234;BME280;12365;43.554;1.388;2023-02-17T01:34:29;101411.09;;;8.34;52.48
24234;BME280;12365;43.554;1.388;2023-02-17T01:36:54;101417.88;;;8.32;52.43
24234;BME280;12365;43.554;1.388;2023-02-17T01:39:20;101417.75;;;8.31;52.52
24234;BME280;12365;43.554;1.388;2023-02-17T01:41:45;101412.28;;;8.28;52.39
24234;BME280;12365;43.554;1.388;2023-02-17T01:44:22;101406.81;;;8.24;52.49
24234;BME280;12365;43.554;1.388;2023-02-17T01:46:50;101414.50;;;8.23;52.51
24234;BME280;12365;43.554;1.388;2023-02-17T01:52:21;101412.28;;;8.17;52.42
24234;BME280;12365;43.554;1.388;2023-02-17T01:54:57;101411.78;;;8.11;52.45
24234;BME280;12365;43.554;1.388;2023-02-17T01:57:26;101412.69;;;8.12;52.40
24234;BME280;12365;43.554;1.388;2023-02-17T01:59:54;101415.19;;;8.10;52.58
24234;BME280;12365;43.554;1.388;2023-02-17T02:02:20;101413.47;;;8.11;52.51
24234;BME280;12365;43.554;1.388;2023-02-17T02:04:49;101412.28;;;8.07;52.43
24234;BME280;12365;43.554;1.388;2023-02-17T02:07:30;101409.19;;;8.01;52.36
24234;BME280;12365;43.554;1.388;2023-02-17T02:09:57;101409.06;;;7.99;52.54
24234;BME280;12365;43.554;1.388;2023-02-17T02:14:54;101411.41;;;7.86;52.78
24234;BME280;12365;43.554;1.388;2023-02-17T02:17:43;101416.84;;;7.79;52.67
24234;BME280;12365;43.554;1.388;2023-02-17T02:20:24;101412.84;;;7.72;52.46
24234;BME280;12365;43.554;1.388;2023-02-17T02:31:18;101406.59;;;7.60;52.99
24234;BME280;12365;43.554;1.388;2023-02-17T02:33:59;101404.47;;;7.56;53.08
24234;BME280;12365;43.554;1.388;2023-02-17T02:36:33;101410.47;;;7.55;52.84
24234;BME280;12365;43.554;1.388;2023-02-17T02:39:03;101415.66;;;7.55;52.84
24234;BME280;12365;43.554;1.388;2023-02-17T02:41:37;101412.03;;;7.53;52.86
24234;BME280;12365;43.554;1.388;2023-02-17T02:44:06;101413.72;;;7.52;53.17
24234;BME280;12365;43.554;1.388;2023-02-17T02:46:32;101416.81;;;7.48;53.10
24234;BME280;12365;43.554;1.388;2023-02-17T02:48:58;101413.69;;;7.42;53.23
24234;BME280;12365;43.554;1.388;2023-02-17T02:51:48;101401.34;;;7.40;53.24
24234;BME280;12365;43.554;1.388;2023-02-17T02:54:25;101406.25;;;7.36;53.17
24234;BME280;12365;43.554;1.388;2023-02-17T02:57:07;101401.34;;;7.29;53.28
24234;BME280;12365;43.554;1.388;2023-02-17T03:08:00;101397.66;;;7.17;53.23
24234;BME280;12365;43.554;1.388;2023-02-17T03:10:26;101393.22;;;7.16;53.56
24234;BME280;12365;43.554;1.388;2023-02-17T03:12:52;101389.59;;;7.14;53.41
24234;BME280;12365;43.554;1.388;2023-02-17T03:15:27;101387.13;;;7.15;53.67
24234;BME280;12365;43.554;1.388;2023-02-17T03:17:57;101392.47;;;7.17;53.32
24234;BME280;12365;43.554;1.388;2023-02-17T03:20:24;101391.69;;;7.18;53.11
24234;BME280;12365;43.554;1.388;2023-02-17T03:22:50;101394.91;;;7.15;53.60
24234;BME280;12365;43.554;1.388;2023-02-17T03:25:16;101397.38;;;7.14;53.68
24234;BME280;12365;43.554;1.388;2023-02-17T03:27:41;101386.72;;;7.11;53.62
24234;BME280;12365;43.554;1.388;2023-02-17T03:30:07;101393.19;;;7.06;52.96
24234;BME280;12365;43.554;1.388;2023-02-17T03:32:33;101399.94;;;7.04;53.63
24234;BME280;12365;43.554;1.388;2023-02-17T03:34:59;101397.88;;;7.00;53.69
24234;BME280;12365;43.554;1.388;2023-02-17T03:37:24;101406.13;;;6.95;53.32
24234;BME280;12365;43.554;1.388;2023-02-17T03:39:50;101408.63;;;6.94;53.82
24234;BME280;12365;43.554;1.388;2023-02-17T03:42:15;101409.25;;;6.91;53.41
24234;BME280;12365;43.554;1.388;2023-02-17T03:44:41;101403.66;;;6.87;53.36
24234;BME280;12365;43.554;1.388;2023-02-17T03:47:06;101401.69;;;6.84;53.58
24234;BME280;12365;43.554;1.388;2023-02-17T03:49:31;101411.81;;;6.81;54.03
24234;BME280;12365;43.554;1.388;2023-02-17T03:51:57;101401.44;;;6.81;53.83
24234;BME280;12365;43.554;1.388;2023-02-17T03:54:24;101412.56;;;6.80;53.65
24234;BME280;12365;43.554;1.388;2023-02-17T03:56:49;101410.59;;;6.78;53.77
24234;BME280;12365;43.554;1.388;2023-02-17T03:59:15;101402.56;;;6.75;53.75
24234;BME280;12365;43.554;1.388;2023-02-17T04:01:40;101404.25;;;6.74;53.52
24234;BME280;12365;43.554;1.388;2023-02-17T04:04:06;101409.91;;;6.70;53.50
24234;BME280;12365;43.554;1.388;2023-02-17T04:06:31;101420.03;;;6.67;54.15
24234;BME280;12365;43.554;1.388;2023-02-17T04:08:57;101416.22;;;6.63;53.72
24234;BME280;12365;43.554;1.388;2023-02-17T04:11:22;101413.50;;;6.62;53.76
24234;BME280;12365;43.554;1.388;2023-02-17T04:13:47;101416.75;;;6.59;53.87
24234;BME280;12365;43.554;1.388;2023-02-17T04:16:13;101415.69;;;6.57;53.94
24234;BME280;12365;43.554;1.388;2023-02-17T04:18:38;101411.13;;;6.55;54.25
24234;BME280;12365;43.554;1.388;2023-02-17T04:21:04;101417.22;;;6.55;54.18
24234;BME280;12365;43.554;1.388;2023-02-17T04:23:30;101421.25;;;6.51;53.97
24234;BME280;12365;43.554;1.388;2023-02-17T04:25:56;101422.63;;;6.48;53.75
24234;BME280;12365;43.554;1.388;2023-02-17T04:28:21;101423.25;;;6.45;54.37
24234;BME280;12365;43.554;1.388;2023-02-17T04:30:48;101423.13;;;6.44;53.90
24234;BME280;12365;43.554;1.388;2023-02-17T04:33:14;101422.22;;;6.43;54.34
24234;BME280;12365;43.554;1.388;2023-02-17T04:35:40;101418.56;;;6.41;54.41
24234;BME280;12365;43.554;1.388;2023-02-17T04:38:06;101422.84;;;6.41;54.28
24234;BME280;12365;43.554;1.388;2023-02-17T04:40:32;101421.81;;;6.39;54.04
24234;BME280;12365;43.554;1.388;2023-02-17T04:42:57;101421.38;;;6.34;54.25
24234;BME280;12365;43.554;1.388;2023-02-17T04:45:23;101424.75;;;6.33;54.33
24234;BME280;12365;43.554;1.388;2023-02-17T04:47:48;101422.00;;;6.32;54.41
24234;BME280;12365;43.554;1.388;2023-02-17T04:50:14;101424.31;;;6.28;54.37
24234;BME280;12365;43.554;1.388;2023-02-17T04:52:39;101425.88;;;6.26;54.38
24234;BME280;12365;43.554;1.388;2023-02-17T04:55:06;101422.09;;;6.23;54.29
24234;BME280;12365;43.554;1.388;2023-02-17T04:57:32;101422.41;;;6.17;54.26
24234;BME280;12365;43.554;1.388;2023-02-17T04:59:57;101431.25;;;6.19;54.48
24234;BME280;12365;43.554;1.388;2023-02-17T05:02:23;101426.97;;;6.20;54.28
24234;BME280;12365;43.554;1.388;2023-02-17T05:04:51;101431.25;;;6.19;54.36
24234;BME280;12365;43.554;1.388;2023-02-17T05:07:16;101437.06;;;6.17;54.67
24234;BME280;12365;43.554;1.388;2023-02-17T05:09:42;101445.91;;;6.19;54.41
24234;BME280;12365;43.554;1.388;2023-02-17T05:12:07;101436.28;;;6.18;54.63
24234;BME280;12365;43.554;1.388;2023-02-17T05:14:33;101436.59;;;6.21;54.62
24234;BME280;12365;43.554;1.388;2023-02-17T05:16:58;101441.78;;;6.21;54.70
24234;BME280;12365;43.554;1.388;2023-02-17T05:19:23;101434.00;;;6.21;54.62
24234;BME280;12365;43.554;1.388;2023-02-17T05:21:49;101441.63;;;6.19;54.72
24234;BME280;12365;43.554;1.388;2023-02-17T05:24:15;101445.25;;;6.21;54.62
24234;BME280;12365;43.554;1.388;2023-02-17T05:26:41;101439.81;;;6.18;54.26
24234;BME280;12365;43.554;1.388;2023-02-17T05:29:06;101442.25;;;6.17;54.22
24234;BME280;12365;43.554;1.388;2023-02-17T05:31:32;101446.25;;;6.13;54.65
24234;BME280;12365;43.554;1.388;2023-02-17T05:33:57;101446.25;;;6.13;54.50
24234;BME280;12365;43.554;1.388;2023-02-17T05:36:22;101450.50;;;6.13;54.28
24234;BME280;12365;43.554;1.388;2023-02-17T05:38:48;101448.53;;;6.10;54.51
24234;BME280;12365;43.554;1.388;2023-02-17T05:41:15;101448.13;;;6.05;54.47
24234;BME280;12365;43.554;1.388;2023-02-17T05:43:41;101442.63;;;6.02;54.29
24234;BME280;12365;43.554;1.388;2023-02-17T05:46:07;101445.09;;;6.01;54.67
24234;BME280;12365;43.554;1.388;2023-02-17T05:48:32;101447.53;;;5.99;54.42
24234;BME280;12365;43.554;1.388;2023-02-17T05:50:58;101450.75;;;5.97;54.52
24234;BME280;12365;43.554;1.388;2023-02-17T05:53:23;101451.66;;;5.97;54.59
24234;BME280;12365;43.554;1.388;2023-02-17T05:55:49;101459.59;;;5.99;54.58
24234;BME280;12365;43.554;1.388;2023-02-17T05:58:14;101456.38;;;6.01;54.36
24234;BME280;12365;43.554;1.388;2023-02-17T06:00:40;101455.31;;;5.99;54.08
24234;BME280;12365;43.554;1.388;2023-02-17T06:03:05;101453.34;;;5.97;54.46
24234;BME280;12365;43.554;1.388;2023-02-17T06:05:31;101453.97;;;5.94;54.53
24234;BME280;12365;43.554;1.388;2023-02-17T06:07:56;101451.84;;;5.90;54.30
24234;BME280;12365;43.554;1.388;2023-02-17T06:10:21;101460.09;;;5.86;54.92
24234;BME280;12365;43.554;1.388;2023-02-17T06:12:47;101457.97;;;5.82;54.52
24234;BME280;12365;43.554;1.388;2023-02-17T06:15:12;101452.22;;;5.76;54.42
24234;BME280;12365;43.554;1.388;2023-02-17T06:17:38;101462.28;;;5.73;54.49
24234;BME280;12365;43.554;1.388;2023-02-17T06:20:04;101469.00;;;5.71;54.93
24234;BME280;12365;43.554;1.388;2023-02-17T06:22:30;101468.72;;;5.68;54.95
24234;BME280;12365;43.554;1.388;2023-02-17T06:24:55;101474.03;;;5.69;55.41
24234;BME280;12365;43.554;1.388;2023-02-17T06:27:20;101470.53;;;5.69;55.19
24234;BME280;12365;43.554;1.388;2023-02-17T06:29:46;101472.22;;;5.68;54.48
24234;BME280;12365;43.554;1.388;2023-02-17T06:32:11;101473.91;;;5.68;54.78
24234;BME280;12365;43.554;1.388;2023-02-17T06:34:37;101470.88;;;5.63;54.70
24234;BME280;12365;43.554;1.388;2023-02-17T06:37:02;101482.13;;;5.63;54.56
24234;BME280;12365;43.554;1.388;2023-02-17T06:39:28;101486.53;;;5.64;55.03
24234;BME280;12365;43.554;1.388;2023-02-17T06:41:53;101480.44;;;5.64;54.70
24234;BME280;12365;43.554;1.388;2023-02-17T06:44:18;101488.09;;;5.62;54.98
24234;BME280;12365;43.554;1.388;2023-02-17T06:46:44;101489.72;;;5.62;54.89
24234;BME280;12365;43.554;1.388;2023-02-17T06:49:11;101489.72;;;5.62;55.01
24234;BME280;12365;43.554;1.388;2023-02-17T06:51:37;101485.34;;;5.61;54.74
24234;BME280;12365;43.554;1.388;2023-02-17T06:54:03;101498.56;;;5.64;54.78
24234;BME280;12365;43.554;1.388;2023-02-17T06:56:28;101498.72;;;5.65;54.99
24234;BME280;12365;43.554;1.388;2023-02-17T06:58:53;101501.44;;;5.67;54.49
24234;BME280;12365;43.554;1.388;2023-02-17T07:01:21;101503.41;;;5.70;55.22
24234;BME280;12365;43.554;1.388;2023-02-17T07:03:48;101506.31;;;5.73;55.24
24234;BME280;12365;43.554;1.388;2023-02-17T07:06:13;101502.47;;;5.78;55.37
24234;BME280;12365;43.554;1.388;2023-02-17T07:08:39;101510.69;;;5.82;54.81
24234;BME280;12365;43.554;1.388;2023-02-17T07:11:08;101505.81;;;5.85;55.05
24234;BME280;12365;43.554;1.388;2023-02-17T07:13:34;101506.25;;;5.90;54.99
24234;BME280;12365;43.554;1.388;2023-02-17T07:15:59;101504.25;;;5.96;54.70
24234;BME280;12365;43.554;1.388;2023-02-17T07:18:25;101507.28;;;6.01;54.52
24234;BME280;12365;43.554;1.388;2023-02-17T07:20:50;101512.28;;;6.08;55.01
24234;BME280;12365;43.554;1.388;2023-02-17T07:23:16;101522.28;;;6.14;54.58
24234;BME280;12365;43.554;1.388;2023-02-17T07:25:42;101528.03;;;6.20;55.10
24234;BME280;12365;43.554;1.388;2023-02-17T07:28:07;101520.06;;;6.27;54.58
24234;BME280;12365;43.554;1.388;2023-02-17T07:30:40;101522.63;;;6.36;54.47
24234;BME280;12365;43.554;1.388;2023-02-17T07:33:06;101515.56;;;6.43;54.77
24234;BME280;12365;43.554;1.388;2023-02-17T07:35:32;101517.91;;;6.50;54.56
24234;BME280;12365;43.554;1.388;2023-02-17T07:37:58;101524.75;;;6.59;54.77
24234;BME280;12365;43.554;1.388;2023-02-17T07:40:24;101528.16;;;6.68;54.28
24234;BME280;12365;43.554;1.388;2023-02-17T07:42:49;101528.53;;;6.81;54.11
24234;BME280;12365;43.554;1.388;2023-02-17T07:45:15;101532.22;;;6.93;54.38
24234;BME280;12365;43.554;1.388;2023-02-17T07:47:40;101535.66;;;7.03;53.83
24234;BME280;12365;43.554;1.388;2023-02-17T07:50:06;101537.25;;;7.11;53.78
24234;BME280;12365;43.554;1.388;2023-02-17T07:52:32;101537.03;;;7.18;53.76
24234;BME280;12365;43.554;1.388;2023-02-17T07:54:57;101537.34;;;7.31;53.89
24234;BME280;12365;43.554;1.388;2023-02-17T07:57:23;101544.97;;;7.49;53.41
24234;BME280;12365;43.554;1.388;2023-02-17T07:59:49;101542.16;;;7.66;53.38
24234;BME280;12365;43.554;1.388;2023-02-17T08:02:14;101540.00;;;7.81;53.09
24234;BME280;12365;43.554;1.388;2023-02-17T08:04:40;101535.75;;;7.92;53.00
24234;BME280;12365;43.554;1.388;2023-02-17T08:07:05;101548.09;;;8.04;52.75
24234;BME280;12365;43.554;1.388;2023-02-17T08:09:31;101546.47;;;8.15;52.81
24234;BME280;12365;43.554;1.388;2023-02-17T08:12:18;101547.38;;;8.26;52.57
24234;BME280;12365;43.554;1.388;2023-02-17T08:15:03;101552.06;;;8.40;52.45
24234;BME280;12365;43.554;1.388;2023-02-17T08:17:28;101546.75;;;8.49;52.25
24234;BME280;12365;43.554;1.388;2023-02-17T08:19:54;101548.84;;;8.63;52.25
24234;BME280;12365;43.554;1.388;2023-02-17T08:22:20;101550.78;;;8.76;52.11
24234;BME280;12365;43.554;1.388;2023-02-17T08:24:45;101549.31;;;8.90;51.94
24234;BME280;12365;43.554;1.388;2023-02-17T08:27:12;101556.31;;;9.01;51.76
24234;BME280;12365;43.554;1.388;2023-02-17T08:29:38;101561.78;;;9.15;51.84
24234;BME280;12365;43.554;1.388;2023-02-17T08:32:04;101567.19;;;9.28;51.54
24234;BME280;12365;43.554;1.388;2023-02-17T08:34:29;101569.78;;;9.38;51.43
24234;BME280;12365;43.554;1.388;2023-02-17T08:36:59;101568.16;;;9.50;51.39
24234;BME280;12365;43.554;1.388;2023-02-17T08:39:24;101570.06;;;9.63;51.20
24234;BME280;12365;43.554;1.388;2023-02-17T08:41:51;101565.59;;;9.72;51.12
24234;BME280;12365;43.554;1.388;2023-02-17T08:44:18;101569.06;;;9.83;51.01
24234;BME280;12365;43.554;1.388;2023-02-17T08:46:45;101566.41;;;9.93;50.70
24234;BME280;12365;43.554;1.388;2023-02-17T08:49:13;101569.31;;;10.08;50.84
24234;BME280;12365;43.554;1.388;2023-02-17T08:51:39;101567.66;;;10.20;50.31
24234;BME280;12365;43.554;1.388;2023-02-17T08:54:06;101564.59;;;10.36;50.25
24234;BME280;12365;43.554;1.388;2023-02-17T08:56:33;101567.34;;;10.50;50.61
24234;BME280;12365;43.554;1.388;2023-02-17T08:58:59;101566.03;;;10.67;50.25
24234;BME280;12365;43.554;1.388;2023-02-17T09:01:25;101574.91;;;10.80;50.03
24234;BME280;12365;43.554;1.388;2023-02-17T09:03:52;101571.16;;;10.89;50.00
24234;BME280;12365;43.554;1.388;2023-02-17T09:06:19;101581.75;;;11.02;49.84
24234;BME280;12365;43.554;1.388;2023-02-17T09:08:45;101573.03;;;11.13;49.40
24234;BME280;12365;43.554;1.388;2023-02-17T09:11:11;101568.59;;;11.24;49.39
24234;BME280;12365;43.554;1.388;2023-02-17T09:13:39;101579.94;;;11.36;49.17
24234;BME280;12365;43.554;1.388;2023-02-17T09:16:05;101585.19;;;11.48;49.16
24234;BME280;12365;43.554;1.388;2023-02-17T09:18:30;101575.16;;;11.54;48.86
24234;BME280;12365;43.554;1.388;2023-02-17T09:20:56;101573.22;;;11.63;48.48
24234;BME280;12365;43.554;1.388;2023-02-17T09:23:22;101576.72;;;11.76;48.54
24234;BME280;12365;43.554;1.388;2023-02-17T09:25:48;101584.44;;;11.86;48.38
24234;BME280;12365;43.554;1.388;2023-02-17T09:28:13;101579.22;;;11.98;48.03
24234;BME280;12365;43.554;1.388;2023-02-17T09:30:39;101575.97;;;12.13;48.06
24234;BME280;12365;43.554;1.388;2023-02-17T09:33:05;101581.41;;;12.28;47.95
24234;BME280;12365;43.554;1.388;2023-02-17T09:35:31;101583.38;;;12.44;47.67
24234;BME280;12365;43.554;1.388;2023-02-17T09:37:57;101590.47;;;12.58;47.49
24234;BME280;12365;43.554;1.388;2023-02-17T09:40:31;101593.00;;;12.70;47.40
24234;BME280;12365;43.554;1.388;2023-02-17T09:43:01;101590.13;;;12.79;47.20
24234;BME280;12365;43.554;1.388;2023-02-17T09:45:31;101593.97;;;12.84;47.19
24234;BME280;12365;43.554;1.388;2023-02-17T09:48:01;101597.19;;;12.93;46.82
24234;BME280;12365;43.554;1.388;2023-02-17T09:50:53;101596.44;;;13.08;46.95
24234;BME280;12365;43.554;1.388;2023-02-17T09:53:40;101601.69;;;13.21;46.75
24234;BME280;12365;43.554;1.388;2023-02-17T09:56:13;101603.75;;;13.38;46.44
24234;BME280;12365;43.554;1.388;2023-02-17T09:58:42;101606.16;;;13.49;46.23
24234;BME280;12365;43.554;1.388;2023-02-17T10:01:15;101611.69;;;13.66;46.38
24234;BME280;12365;43.554;1.388;2023-02-17T10:03:43;101595.44;;;13.72;46.18
24234;BME280;12365;43.554;1.388;2023-02-17T10:06:20;101596.53;;;13.89;45.95
24234;BME280;12365;43.554;1.388;2023-02-17T10:08:57;101596.44;;;14.01;45.64
24234;BME280;12365;43.554;1.388;2023-02-17T10:11:27;101598.00;;;14.12;45.46
24234;BME280;12365;43.554;1.388;2023-02-17T10:13:56;101606.47;;;14.21;45.25
24234;BME280;12365;43.554;1.388;2023-02-17T10:16:27;101604.41;;;14.30;45.07
24234;BME280;12365;43.554;1.388;2023-02-17T10:19:07;101603.53;;;14.45;44.99
24234;BME280;12365;43.554;1.388;2023-02-17T10:21:47;101599.25;;;14.60;44.95
24234;BME280;12365;43.554;1.388;2023-02-17T10:24:15;101604.53;;;14.75;44.81
24234;BME280;12365;43.554;1.388;2023-02-17T10:34:36;101594.13;;;15.36;43.95
24234;BME280;12365;43.554;1.388;2023-02-17T10:37:04;101601.09;;;15.50;43.87
24234;BME280;12365;43.554;1.388;2023-02-17T10:39:52;101596.19;;;15.71;43.67
24234;BME280;12365;43.554;1.388;2023-02-17T10:42:36;101595.41;;;15.89;43.71
24234;BME280;12365;43.554;1.388;2023-02-17T10:45:03;101601.25;;;15.99;43.29
24234;BME280;12365;43.554;1.388;2023-02-17T10:47:30;101598.16;;;16.07;43.37
24234;BME280;12365;43.554;1.388;2023-02-17T10:49:56;101600.63;;;16.20;43.03
24234;BME280;12365;43.554;1.388;2023-02-17T10:52:45;101596.88;;;16.31;43.11
24234;BME280;12365;43.554;1.388;2023-02-17T10:55:32;101594.53;;;16.37;43.00
24234;BME280;12365;43.554;1.388;2023-02-17T10:58:14;101597.84;;;16.50;42.71
24234;BME280;12365;43.554;1.388;2023-02-17T11:00:46;101593.22;;;16.62;42.58
24234;BME280;12365;43.554;1.388;2023-02-17T11:03:22;101589.41;;;16.73;42.48
24234;BME280;12365;43.554;1.388;2023-02-17T11:05:56;101582.19;;;16.85;42.33
24234;BME280;12365;43.554;1.388;2023-02-17T11:11:20;101586.75;;;17.06;41.99
24234;BME280;12365;43.554;1.388;2023-02-17T11:16:31;101583.38;;;17.26;41.75
24234;BME280;12365;43.554;1.388;2023-02-17T11:18:56;101580.81;;;17.46;41.72
24234;BME280;12365;43.554;1.388;2023-02-17T11:21:21;101574.41;;;17.59;41.49
24234;BME280;12365;43.554;1.388;2023-02-17T11:24:05;101573.25;;;17.71;41.46
24234;BME280;12365;43.554;1.388;2023-02-17T11:26:33;101564.72;;;17.77;41.17
24234;BME280;12365;43.554;1.388;2023-02-17T11:29:13;101564.31;;;17.86;41.11
24234;BME280;12365;43.554;1.388;2023-02-17T11:31:40;101558.69;;;17.97;41.04
24234;BME280;12365;43.554;1.388;2023-02-17T11:34:13;101563.00;;;18.15;41.07
24234;BME280;12365;43.554;1.388;2023-02-17T11:36:39;101552.88;;;18.24;40.76
24234;BME280;12365;43.554;1.388;2023-02-17T11:39:20;101545.28;;;18.32;40.64
24234;BME280;12365;43.554;1.388;2023-02-17T11:41:47;101550.91;;;18.39;40.57
24234;BME280;12365;43.554;1.388;2023-02-17T11:44:23;101551.38;;;18.50;40.45
24234;BME280;12365;43.554;1.388;2023-02-17T11:46:57;101549.84;;;18.55;40.36
24234;BME280;12365;43.554;1.388;2023-02-17T11:52:18;101534.41;;;18.65;40.36
24234;BME280;12365;43.554;1.388;2023-02-17T11:55:14;101534.97;;;18.77;40.01
24234;BME280;12365;43.554;1.388;2023-02-17T12:07:01;101510.66;;;19.07;39.67
24234;BME280;12365;43.554;1.388;2023-02-17T12:09:58;101509.22;;;19.15;39.78
24234;BME280;12365;43.554;1.388;2023-02-17T12:12:47;101500.84;;;19.26;39.50
24234;BME280;12365;43.554;1.388;2023-02-17T12:15:40;101493.59;;;19.43;39.45
24234;BME280;12365;43.554;1.388;2023-02-17T12:36:57;101472.44;;;19.88;39.03
24234;BME280;12365;43.554;1.388;2023-02-17T12:42:03;101468.81;;;19.86;38.77
24234;BME280;12365;43.554;1.388;2023-02-17T12:44:36;101460.50;;;19.77;38.62
24234;BME280;12365;43.554;1.388;2023-02-17T12:47:09;101461.34;;;19.76;38.98
24234;BME280;12365;43.554;1.388;2023-02-17T12:49:44;101457.72;;;19.73;38.57
24234;BME280;12365;43.554;1.388;2023-02-17T12:52:17;101457.13;;;19.81;38.82
24234;BME280;12365;43.554;1.388;2023-02-17T13:00:01;101446.16;;;19.70;38.60
24234;BME280;12365;43.554;1.388;2023-02-17T13:02:36;101442.22;;;19.61;38.74
24234;BME280;12365;43.554;1.388;2023-02-17T13:05:05;101439.44;;;19.58;38.57
24234;BME280;12365;43.554;1.388;2023-02-17T13:07:45;101443.97;;;19.60;38.68
24234;BME280;12365;43.554;1.388;2023-02-17T13:13:24;101427.19;;;19.60;38.81
24234;BME280;12365;43.554;1.388;2023-02-17T13:16:07;101428.28;;;19.66;38.61
24234;BME280;12365;43.554;1.388;2023-02-17T13:18:40;101425.06;;;19.74;38.38
24234;BME280;12365;43.554;1.388;2023-02-17T13:24:01;101415.38;;;19.74;38.76
24234;BME280;12365;43.554;1.388;2023-02-17T13:26:38;101405.66;;;19.75;38.66
24234;BME280;12365;43.554;1.388;2023-02-17T13:29:08;101406.69;;;19.78;38.78
24234;BME280;12365;43.554;1.388;2023-02-17T13:31:45;101400.78;;;19.85;38.83
24234;BME280;12365;43.554;1.388;2023-02-17T13:34:32;101397.16;;;19.83;38.92
24234;BME280;12365;43.554;1.388;2023-02-17T13:37:00;101404.31;;;19.86;38.89
24234;BME280;12365;43.554;1.388;2023-02-17T13:41:55;101392.66;;;19.81;38.84
24234;BME280;12365;43.554;1.388;2023-02-17T13:46:52;101385.00;;;19.88;38.79
24234;BME280;12365;43.554;1.388;2023-02-17T13:49:23;101385.59;;;19.81;38.98
24234;BME280;12365;43.554;1.388;2023-02-17T13:51:49;101378.38;;;19.77;39.27
24234;BME280;12365;43.554;1.388;2023-02-17T13:54:19;101385.72;;;19.84;39.15
24234;BME280;12365;43.554;1.388;2023-02-17T13:56:49;101373.50;;;19.88;39.26
24234;BME280;12365;43.554;1.388;2023-02-17T13:59:22;101381.56;;;19.91;39.54
24234;BME280;12365;43.554;1.388;2023-02-17T14:01:49;101373.63;;;19.92;39.45
24234;BME280;12365;43.554;1.388;2023-02-17T14:04:27;101373.78;;;19.96;39.25
24234;BME280;12365;43.554;1.388;2023-02-17T14:06:59;101374.50;;;19.91;39.59
24234;BME280;12365;43.554;1.388;2023-02-17T14:09:28;101378.72;;;19.86;39.48
24234;BME280;12365;43.554;1.388;2023-02-17T14:12:00;101369.94;;;19.87;39.49
24234;BME280;12365;43.554;1.388;2023-02-17T14:14:36;101370.00;;;19.89;39.50
24234;BME280;12365;43.554;1.388;2023-02-17T14:17:11;101366.44;;;19.88;39.83
24234;BME280;12365;43.554;1.388;2023-02-17T14:19:47;101368.13;;;19.86;39.79
24234;BME280;12365;43.554;1.388;2023-02-17T14:22:33;101362.72;;;19.83;39.61
24234;BME280;12365;43.554;1.388;2023-02-17T14:25:07;101363.44;;;19.79;40.02
24234;BME280;12365;43.554;1.388;2023-02-17T14:27:43;101367.75;;;19.76;40.09
24234;BME280;12365;43.554;1.388;2023-02-17T14:30:31;101357.06;;;19.73;39.94
24234;BME280;12365;43.554;1.388;2023-02-17T14:33:24;101355.19;;;19.70;40.06